Terminal Aerodrome Forecast
Issued by NWS Lake Charles, LA

Home | Current Version | Previous Version | Text Only | Print | Product List | Glossary On
Versions: 1 2 3 4 5 6 7 8 9 10 11 12 13 14 15 16 17 18 19 20 21 22
000
FTUS44 KLCH 261239 AAB
TAFLCH
TAF AMD
KLCH 261239Z 2613/2712 12010KT P6SM SCT050 BKN100
     FM261500 15013G21KT P6SM VCTS BKN035CB
      TEMPO 2619/2623 2SM TSRA BKN025CB OVC035
     FM270100 15006KT P6SM SCT025 OVC035=

USA.gov is the U.S. government's official web portal to all federal, state and local government web resources and services.